Time;durP1;ratioP1;P1;durP2;ratioP2;P2;SDS_P1;SDS_P2;PMS_P1;PMS_P2;Temp;Humidity;BMP_temperature;BMP_pressure;BME280_temperature;BME280_humidity;BME280_pressure;Samples;Min_cycle;Max_cycle;Signal;HPM_P1;HPM_P2
2022/04/02 00:01:40;;;;;;;27.65;6.25;;;;;;;12.65;87.10;98700.13;5007389;28;20029;-76
2022/04/02 00:04:07;;;;;;;28.08;5.80;;;;;;;12.74;87.24;98684.00;5012011;28;20033;-76
2022/04/02 00:07:27;;;;;;;13.60;5.43;;;;;;;12.67;86.66;98695.69;5011313;28;20037;-76
2022/04/02 00:09:52;;;;;;;22.63;8.35;;;;;;;12.66;87.00;98676.38;5009707;28;20021;-75
2022/04/02 00:12:17;;;;;;;23.20;4.43;;;;;;;12.75;86.46;98676.97;5012473;28;20351;-76
2022/04/02 00:14:45;;;;;;;22.60;7.00;;;;;;;12.62;86.42;98663.41;5010364;28;20374;-76
2022/04/02 00:17:56;;;;;;;26.77;5.72;;;;;;;12.75;86.70;98680.44;5007968;28;20080;-76
2022/04/02 00:21:11;;;;;;;16.08;5.07;;;;;;;12.64;86.30;98686.13;5008802;28;20037;-76
2022/04/02 00:24:07;;;;;;;24.98;7.10;;;;;;;12.78;86.28;98685.63;5009259;28;20064;-76
2022/04/02 00:26:34;;;;;;;23.75;7.05;;;;;;;12.85;85.90;98673.94;5011454;28;20073;-76
2022/04/02 00:28:59;;;;;;;23.40;6.43;;;;;;;12.77;85.72;98680.41;5009706;28;20033;-76
2022/04/02 00:31:29;;;;;;;16.95;4.88;;;;;;;12.76;86.08;98686.56;5009843;28;20036;-76
2022/04/02 00:33:55;;;;;;;17.38;4.47;;;;;;;12.66;86.27;98681.63;5006127;28;20121;-75
2022/04/02 00:36:22;;;;;;;27.15;5.18;;;;;;;12.77;86.38;98685.66;5006769;28;20117;-75
2022/04/02 00:38:47;;;;;;;19.83;5.30;;;;;;;12.85;86.09;98681.84;5009474;28;20026;-76
2022/04/02 00:41:15;;;;;;;25.25;6.20;;;;;;;12.95;85.87;98685.00;5007329;28;20025;-75
2022/04/02 00:43:55;;;;;;;21.67;5.65;;;;;;;12.79;85.74;98682.06;4992012;28;20034;-75
2022/04/02 00:46:20;;;;;;;17.20;4.80;;;;;;;12.89;85.55;98687.84;5009777;28;20041;-77
2022/04/02 00:48:46;;;;;;;24.60;6.65;;;;;;;12.79;86.07;98692.59;5008046;28;20054;-76
2022/04/02 00:51:15;;;;;;;28.80;6.60;;;;;;;12.69;86.21;98675.44;5009977;28;20034;-76
2022/04/02 00:53:44;;;;;;;21.58;5.30;;;;;;;12.77;86.00;98689.16;5009401;28;20033;-77
2022/04/02 00:56:12;;;;;;;19.08;5.50;;;;;;;12.66;85.89;98684.28;5006778;28;20034;-76
2022/04/02 00:58:39;;;;;;;13.48;4.57;;;;;;;12.77;85.33;98681.25;5009289;28;20025;-77
2022/04/02 01:01:05;;;;;;;23.50;6.18;;;;;;;12.89;85.15;98679.94;5005999;28;20042;-76
2022/04/02 01:03:31;;;;;;;22.77;5.25;;;;;;;12.72;85.37;98685.00;5006114;28;20030;-76
2022/04/02 01:05:57;;;;;;;28.33;6.97;;;;;;;12.87;85.09;98673.88;5007170;28;20033;-77
2022/04/02 01:08:22;;;;;;;16.33;4.40;;;;;;;12.80;84.86;98681.13;5008495;28;20040;-77
2022/04/02 01:10:48;;;;;;;27.73;5.63;;;;;;;12.86;84.96;98674.81;5004386;28;20488;-77
2022/04/02 01:13:16;;;;;;;26.23;6.03;;;;;;;12.87;85.13;98682.63;5008027;28;20057;-76
2022/04/02 01:15:41;;;;;;;17.42;4.13;;;;;;;12.93;85.07;98680.69;4986485;28;20038;-75
2022/04/02 01:18:07;;;;;;;17.20;3.97;;;;;;;12.78;84.94;98675.09;5007732;28;20539;-76
2022/04/02 01:20:33;;;;;;;22.35;4.25;;;;;;;12.84;85.12;98680.13;5007474;28;20030;-76
2022/04/02 01:23:00;;;;;;;15.30;4.80;;;;;;;12.91;84.86;98682.53;5007995;28;20480;-76
2022/04/02 01:25:31;;;;;;;14.73;4.25;;;;;;;12.74;85.07;98685.78;5008443;28;20386;-76
2022/04/02 01:27:58;;;;;;;28.50;6.95;;;;;;;12.51;85.86;98682.22;4991021;28;20052;-76
2022/04/02 01:30:25;;;;;;;16.38;6.00;;;;;;;12.57;85.58;98689.91;5005484;28;20481;-75
2022/04/02 01:32:51;;;;;;;15.80;4.43;;;;;;;12.59;85.33;98681.94;5008351;28;20029;-76
2022/04/02 01:35:16;;;;;;;13.82;4.30;;;;;;;12.68;85.57;98690.34;5009281;28;20405;-76
2022/04/02 01:37:44;;;;;;;13.18;4.50;;;;;;;12.60;85.51;98692.41;5007185;28;20029;-75
2022/04/02 01:40:48;;;;;;;22.52;3.80;;;;;;;12.66;85.37;98700.06;5010097;28;20042;-76
2022/04/02 01:43:52;;;;;;;23.50;5.28;;;;;;;12.43;85.79;98703.53;5007975;28;20378;-76
2022/04/02 01:46:24;;;;;;;;;;;;;;;12.55;85.74;98712.75;5006661;28;20409;-76
2022/04/02 01:48:49;;;;;;;20.08;5.53;;;;;;;12.70;85.60;98710.50;5009586;28;19936;-76
2022/04/02 01:51:15;;;;;;;15.25;4.22;;;;;;;12.65;85.61;98722.03;5008183;28;20462;-75
2022/04/02 01:53:41;;;;;;;19.52;4.30;;;;;;;12.61;86.60;98722.19;5006768;28;20038;-76
2022/04/02 01:56:09;;;;;;;18.02;6.38;;;;;;;12.42;87.75;98714.94;5007020;28;20025;-76
2022/04/02 01:58:35;;;;;;;17.05;4.05;;;;;;;12.39;89.16;98724.75;5005627;28;20030;-75
2022/04/02 02:01:00;;;;;;;24.65;5.00;;;;;;;12.47;89.46;98722.69;5004773;28;20425;-75
2022/04/02 02:03:26;;;;;;;16.92;5.38;;;;;;;12.10;89.68;98723.94;5008093;28;20076;-75
2022/04/02 02:06:28;;;;;;;19.48;5.25;;;;;;;12.21;89.40;98728.84;5010037;28;20033;-76
2022/04/02 02:09:10;;;;;;;17.05;4.47;;;;;;;12.20;89.26;98704.31;5007354;28;20033;-75
2022/04/02 02:11:36;;;;;;;10.88;3.95;;;;;;;12.22;89.42;98714.78;5005697;28;20030;-76
2022/04/02 02:14:01;;;;;;;19.42;6.20;;;;;;;12.16;89.18;98718.47;4991244;28;20462;-76
2022/04/02 02:16:27;;;;;;;13.80;3.88;;;;;;;12.20;88.08;98730.63;5008452;28;20061;-75
2022/04/02 02:18:53;;;;;;;20.65;5.50;;;;;;;11.99;87.46;98711.16;5004835;28;20033;-75
2022/04/02 02:21:25;;;;;;;20.77;6.93;;;;;;;12.16;87.89;98723.75;5008855;28;20060;-76
2022/04/02 02:23:51;;;;;;;18.60;3.73;;;;;;;11.90;87.64;98714.09;4990517;28;20038;-74
2022/04/02 02:26:16;;;;;;;15.90;4.97;;;;;;;11.84;87.78;98699.34;5008385;28;20358;-75
2022/04/02 02:28:42;;;;;;;16.40;3.45;;;;;;;11.95;87.67;98712.16;5009181;28;20029;-75
2022/04/02 02:31:07;;;;;;;11.65;3.42;;;;;;;11.90;87.55;98715.88;5007235;28;20038;-74
2022/04/02 02:36:18;;;;;;;11.18;2.72;;;;;;;11.83;87.06;98718.66;5007299;28;20040;-76
2022/04/02 02:39:11;;;;;;;11.25;3.13;;;;;;;11.82;86.85;98718.69;5004503;28;23136;-75
2022/04/02 02:41:36;;;;;;;9.77;2.85;;;;;;;11.86;86.26;98722.94;5005362;28;20026;-75
2022/04/02 02:44:03;;;;;;;14.15;4.00;;;;;;;11.95;86.13;98738.47;5007033;28;20454;-75
2022/04/02 02:46:28;;;;;;;8.95;2.35;;;;;;;11.72;87.03;98740.94;5006488;28;20018;-75
2022/04/02 02:48:56;;;;;;;9.20;3.08;;;;;;;11.71;86.37;98726.09;5004338;28;20064;-75
2022/04/02 02:51:22;;;;;;;10.40;2.85;;;;;;;11.92;85.84;98746.44;5005373;28;20030;-75
2022/04/02 02:54:07;;;;;;;10.70;3.22;;;;;;;11.98;85.70;98746.22;5003432;28;20037;-74
2022/04/02 02:56:32;;;;;;;6.00;2.08;;;;;;;11.94;85.70;98743.75;5006764;28;20058;-76
2022/04/02 02:58:58;;;;;;;16.48;2.13;;;;;;;11.64;86.41;98743.81;5006475;28;20056;-76
2022/04/02 03:01:23;;;;;;;7.45;1.95;;;;;;;11.73;85.99;98745.25;5005353;28;20357;-75
2022/04/02 03:03:49;;;;;;;9.32;3.03;;;;;;;11.80;85.86;98755.56;5003784;28;20045;-76
2022/04/02 03:06:14;;;;;;;10.52;1.80;;;;;;;11.67;86.82;98753.34;5005647;28;20034;-76
2022/04/02 03:08:40;;;;;;;6.97;2.10;;;;;;;11.80;87.43;98760.81;4990355;28;20033;-75
2022/04/02 03:11:06;;;;;;;7.78;1.33;;;;;;;11.78;85.83;98753.88;5007578;28;20025;-76
2022/04/02 03:13:32;;;;;;;7.15;2.35;;;;;;;11.65;85.68;98752.53;4990700;28;20030;-76
2022/04/02 03:15:57;;;;;;;3.75;1.10;;;;;;;11.65;86.36;98748.16;5007825;28;20030;-75
2022/04/02 03:18:23;;;;;;;7.38;2.17;;;;;;;11.68;86.32;98742.78;5005096;28;20470;-74
2022/04/02 03:20:50;;;;;;;4.47;1.38;;;;;;;11.57;86.48;98737.88;5009978;28;20033;-75
2022/04/02 03:23:27;;;;;;;6.88;1.63;;;;;;;11.69;86.56;98738.41;5010552;28;20037;-75
2022/04/02 03:25:53;;;;;;;4.38;1.58;;;;;;;11.73;86.35;98748.78;5009343;28;20089;-76
2022/04/02 03:28:19;;;;;;;9.57;1.65;;;;;;;11.86;86.00;98736.09;5007514;28;20094;-76
2022/04/02 03:30:44;;;;;;;2.92;1.05;;;;;;;11.94;86.40;98742.00;5005384;28;20474;-75
2022/04/02 03:36:31;;;;;;;7.07;1.92;;;;;;;11.84;86.45;98746.66;5012886;28;20089;-74
2022/04/02 03:38:57;;;;;;;15.40;2.00;;;;;;;11.79;87.55;98740.69;5009516;28;20030;-75
2022/04/02 03:41:23;;;;;;;4.63;1.42;;;;;;;11.83;87.19;98749.34;4996498;28;20038;-76
2022/04/02 03:43:50;;;;;;;11.85;2.53;;;;;;;11.85;87.19;98765.94;5009423;28;20022;-75
2022/04/02 03:49:05;;;;;;;4.90;2.40;;;;;;;11.79;87.54;98756.44;5010165;28;20057;-76
2022/04/02 03:51:31;;;;;;;10.40;2.15;;;;;;;11.53;88.66;98765.16;5011507;28;20037;-76
2022/04/02 03:53:58;;;;;;;8.10;1.60;;;;;;;11.58;88.18;98757.13;5009504;28;20366;-76
2022/04/02 03:56:23;;;;;;;7.28;1.73;;;;;;;11.69;88.61;98759.44;5007869;28;20394;-76
2022/04/02 03:58:49;;;;;;;4.40;1.85;;;;;;;11.62;88.83;98764.00;5007415;28;20048;-76
2022/04/02 04:01:33;;;;;;;8.05;2.45;;;;;;;11.52;89.31;98773.94;5006703;28;20036;-76
2022/04/02 04:03:58;;;;;;;4.55;1.60;;;;;;;11.64;89.17;98769.22;5007915;28;20038;-76
2022/04/02 04:06:24;;;;;;;3.70;1.75;;;;;;;11.39;89.47;98756.81;5008001;28;20088;-77
2022/04/02 04:08:49;;;;;;;7.63;1.92;;;;;;;11.52;89.24;98771.31;5009424;28;20026;-77
2022/04/02 04:11:21;;;;;;;6.53;1.38;;;;;;;11.48;88.72;98767.06;5010134;28;20034;-76
2022/04/02 04:13:46;;;;;;;3.85;1.67;;;;;;;11.73;89.08;98782.06;5002581;28;20513;-76
2022/04/02 04:16:12;;;;;;;7.05;2.97;;;;;;;11.51;89.24;98785.34;5009656;28;20029;-76
2022/04/02 04:18:38;;;;;;;3.95;1.58;;;;;;;11.66;89.14;98785.78;5006946;28;20282;-76
2022/04/02 04:21:04;;;;;;;8.10;1.40;;;;;;;11.51;89.00;98777.47;4992600;28;20406;-76
2022/04/02 04:23:29;;;;;;;6.93;1.48;;;;;;;11.44;89.42;98780.31;4989976;28;20044;-75
2022/04/02 04:25:55;;;;;;;7.38;1.30;;;;;;;11.40;88.99;98780.44;5006694;28;20042;-77
2022/04/02 04:28:20;;;;;;;5.70;1.35;;;;;;;11.23;89.00;98781.81;5007260;28;20026;-76
2022/04/02 04:30:46;;;;;;;6.88;2.15;;;;;;;11.38;88.61;98784.88;5011508;28;20062;-76
2022/04/02 04:33:12;;;;;;;4.35;1.60;;;;;;;11.47;88.64;98790.72;5005532;28;20344;-76
2022/04/02 04:35:38;;;;;;;6.68;1.70;;;;;;;11.31;88.36;98791.19;5010220;28;20048;-76
2022/04/02 04:38:03;;;;;;;4.53;1.45;;;;;;;11.47;89.00;98791.63;5005713;28;20026;-75
2022/04/02 04:40:28;;;;;;;4.18;1.80;;;;;;;11.41;89.68;98802.28;5006462;28;20093;-75
2022/04/02 04:42:54;;;;;;;6.57;1.58;;;;;;;11.37;88.89;98809.38;5008011;28;20034;-75
2022/04/02 04:45:19;;;;;;;4.90;1.33;;;;;;;11.47;89.04;98804.75;5007311;28;20036;-77
2022/04/02 04:47:46;;;;;;;13.18;2.65;;;;;;;11.20;89.00;98809.03;4988018;28;20038;-75
2022/04/02 04:50:12;;;;;;;6.85;2.55;;;;;;;11.41;89.49;98804.91;4991246;28;20053;-77
2022/04/02 04:52:38;;;;;;;6.30;2.30;;;;;;;11.51;89.62;98813.38;5007432;28;20037;-76
2022/04/02 04:55:05;;;;;;;9.75;2.45;;;;;;;11.42;89.41;98814.50;4986540;28;20026;-78
2022/04/02 04:57:31;;;;;;;5.53;2.38;;;;;;;11.56;88.79;98814.09;5006923;28;20026;-78
2022/04/02 04:59:57;;;;;;;5.90;2.80;;;;;;;11.44;88.95;98819.72;5008451;28;20029;-80
2022/04/02 05:02:22;;;;;;;5.03;2.28;;;;;;;11.66;88.55;98826.06;4990800;28;20053;-73
2022/04/02 05:04:49;;;;;;;9.32;2.33;;;;;;;11.80;88.25;98826.50;5005837;28;20502;-78
2022/04/02 05:07:15;;;;;;;6.25;2.53;;;;;;;11.70;88.42;98829.44;5009942;28;20397;-77
2022/04/02 05:09:42;;;;;;;4.88;1.95;;;;;;;11.94;87.47;98827.88;5004900;28;20034;-73
2022/04/02 05:12:08;;;;;;;3.70;1.67;;;;;;;11.84;86.90;98833.38;5006549;28;20030;-73
2022/04/02 05:14:35;;;;;;;8.65;2.33;;;;;;;12.08;86.32;98838.84;5004848;28;20394;-75
2022/04/02 05:17:00;;;;;;;5.47;1.67;;;;;;;12.14;85.90;98838.63;5003518;28;20030;-77
2022/04/02 05:19:26;;;;;;;4.50;2.30;;;;;;;12.21;86.17;98842.78;5006530;28;20470;-77
2022/04/02 05:21:52;;;;;;;7.68;2.38;;;;;;;12.11;85.95;98835.25;5008971;28;20022;-77
2022/04/02 05:24:17;;;;;;;5.38;2.25;;;;;;;12.16;85.54;98841.22;5014644;28;20029;-76
2022/04/02 05:26:43;;;;;;;5.55;1.85;;;;;;;12.07;85.40;98828.34;4997029;28;20032;-77
2022/04/02 05:32:31;;;;;;;7.32;2.40;;;;;;;12.22;85.14;98844.50;5015806;28;20084;-82
2022/04/02 05:34:57;;;;;;;4.35;2.55;;;;;;;12.22;85.69;98838.38;5015512;28;20088;-84
2022/04/02 05:37:23;;;;;;;7.28;2.75;;;;;;;12.41;84.35;98839.50;5014613;28;20022;-77
2022/04/02 05:39:48;;;;;;;6.07;1.90;;;;;;;12.30;83.39;98846.88;5014362;28;20458;-81
2022/04/02 05:45:46;;;;;;;6.35;2.15;;;;;;;12.35;83.19;98844.09;5014453;28;20408;-81
2022/04/02 05:48:12;;;;;;;10.32;1.83;;;;;;;12.32;83.43;98821.41;5015342;28;20049;-79
2022/04/02 05:50:37;;;;;;;6.38;2.10;;;;;;;12.51;84.05;98831.31;5012147;28;20081;-78
2022/04/02 05:59:57;;;;;;;2.90;1.67;;;;;;;13.02;80.27;98856.78;5010105;28;20045;-79
2022/04/02 06:09:06;;;;;;;11.77;2.47;;;;;;;14.03;76.07;98842.50;5013656;28;20037;-77
2022/04/02 06:11:31;;;;;;;6.30;2.72;;;;;;;14.42;75.06;98841.81;5010990;28;20112;-79
2022/04/02 06:13:57;;;;;;;6.15;2.15;;;;;;;15.12;74.13;98845.88;5011269;28;20129;-78
2022/04/02 06:16:23;;;;;;;7.63;2.10;;;;;;;14.91;71.79;98838.91;5013304;28;20033;-78
2022/04/02 06:18:49;;;;;;;5.97;1.92;;;;;;;14.62;72.99;98862.13;5013424;28;20030;-77
2022/04/02 06:21:15;;;;;;;3.53;2.28;;;;;;;15.02;72.04;98859.59;5011575;28;20052;-78
2022/04/02 06:23:42;;;;;;;8.07;2.47;;;;;;;14.68;71.37;98856.59;4996062;28;20030;-78
2022/04/02 06:26:08;;;;;;;6.40;2.78;;;;;;;14.48;73.17;98851.25;5013558;28;20085;-78
2022/04/02 06:31:56;;;;;;;7.43;2.05;;;;;;;14.73;72.60;98861.69;5013609;28;20434;-77
2022/04/02 06:37:43;;;;;;;7.03;2.08;;;;;;;14.95;69.83;98845.78;5013579;28;20032;-76
2022/04/02 06:43:30;;;;;;;7.90;2.67;;;;;;;14.62;69.85;98856.84;5013472;28;20522;-78
2022/04/02 06:46:10;;;;;;;4.63;2.15;;;;;;;14.66;70.10;98862.88;5013477;28;20017;-78
2022/04/02 06:48:35;;;;;;;3.33;1.20;;;;;;;14.84;67.66;98867.34;5014014;28;20054;-77
2022/04/02 06:51:02;;;;;;;6.80;1.38;;;;;;;14.62;67.05;98874.47;5012735;28;20474;-78
2022/04/02 06:53:27;;;;;;;2.40;0.90;;;;;;;14.53;65.80;98884.44;5012419;28;20070;-77
2022/04/02 06:59:14;;;;;;;4.93;1.30;;;;;;;14.19;65.06;98891.97;5011409;28;20085;-77
2022/04/02 07:01:40;;;;;;;2.20;1.27;;;;;;;14.16;64.60;98916.69;5012484;28;20034;-76
2022/04/02 07:04:05;;;;;;;1.67;0.77;;;;;;;14.14;64.25;98914.16;5011795;28;20037;-78
2022/04/02 07:06:34;;;;;;;2.78;1.05;;;;;;;14.15;65.12;98915.00;4979785;28;20065;-76
2022/04/02 07:08:59;;;;;;;7.03;1.13;;;;;;;14.41;65.26;98923.69;5032708;28;20457;-76
2022/04/02 07:14:46;;;;;;;4.05;1.00;;;;;;;14.43;65.64;98917.41;5037061;28;20037;-77
2022/04/02 07:17:12;;;;;;;3.90;1.35;;;;;;;14.63;64.84;98910.50;5018873;28;20030;-77
2022/04/02 07:19:39;;;;;;;24.88;2.55;;;;;;;14.56;64.51;98928.34;5036946;28;20053;-77
2022/04/02 07:22:09;;;;;;;1.30;0.70;;;;;;;14.36;64.90;98942.31;5037228;28;20029;-77
2022/04/02 07:24:58;;;;;;;0.93;0.75;;;;;;;14.14;63.84;98924.69;5035105;28;20025;-76
2022/04/02 07:27:30;;;;;;;3.58;2.35;;;;;;;14.32;64.45;98927.53;5009304;28;20421;-77
2022/04/02 07:29:57;;;;;;;4.77;2.00;;;;;;;14.59;64.38;98935.31;5036525;28;20040;-77
2022/04/02 07:36:08;;;;;;;3.55;1.05;;;;;;;14.54;62.82;98951.34;5036340;28;20552;-77
2022/04/02 07:38:33;;;;;;;2.35;0.93;;;;;;;14.49;63.11;98932.13;5036160;28;20068;-77
2022/04/02 07:41:06;;;;;;;1.42;0.50;;;;;;;14.52;63.02;98950.50;5033996;28;20025;-77
2022/04/02 07:43:52;;;;;;;1.90;0.60;;;;;;;14.61;63.15;98951.94;5036597;28;20038;-78
2022/04/02 07:46:23;;;;;;;4.55;1.02;;;;;;;14.77;62.69;98945.09;5036135;28;20036;-77
2022/04/02 07:48:49;;;;;;;0.70;0.30;;;;;;;14.66;63.72;98963.19;5036995;28;20060;-77
2022/04/02 07:51:18;;;;;;;1.33;0.63;;;;;;;14.78;61.27;98945.06;5035830;28;20029;-77
2022/04/02 07:57:09;;;;;;;1.80;0.50;;;;;;;14.75;60.71;98954.91;5036136;28;20060;-77
2022/04/02 08:02:58;;;;;;;1.38;0.60;;;;;;;14.40;61.16;98980.88;5036090;28;20091;-76
2022/04/02 08:08:45;;;;;;;1.05;0.50;;;;;;;14.86;61.08;98972.94;5035751;28;20033;-76
2022/04/02 08:14:35;;;;;;;2.67;0.90;;;;;;;14.79;59.03;98956.47;5036040;28;20437;-76
2022/04/02 08:17:01;;;;;;;5.10;0.60;;;;;;;14.83;60.28;98944.03;5035448;28;20417;-76
2022/04/02 08:19:28;;;;;;;3.85;0.88;;;;;;;15.06;58.88;98951.00;5018029;28;20029;-77
2022/04/02 08:21:53;;;;;;;0.98;0.40;;;;;;;15.17;60.26;98957.53;5017484;28;20121;-77
2022/04/02 08:24:18;;;;;;;2.33;0.90;;;;;;;15.29;59.33;98960.56;5033765;28;20029;-77
2022/04/02 08:27:03;;;;;;;3.13;0.95;;;;;;;15.34;59.09;98970.03;5035362;28;20029;-77
2022/04/02 08:33:09;;;;;;;1.80;0.30;;;;;;;15.62;56.29;98967.06;5035164;28;20032;-75
2022/04/02 08:39:03;;;;;;;2.70;1.10;;;;;;;15.65;54.54;98978.44;5035796;28;20068;-76
2022/04/02 08:45:07;;;;;;;4.22;1.27;;;;;;;15.46;54.48;98973.94;5034115;28;20064;-73
2022/04/02 08:48:11;;;;;;;2.37;1.17;;;;;;;15.61;54.81;98983.81;5035050;28;20033;-75
2022/04/02 08:54:04;;;;;;;1.38;0.57;;;;;;;15.62;54.35;98961.75;5035169;28;20103;-75
2022/04/02 08:56:33;;;;;;;2.55;0.47;;;;;;;15.52;53.26;98978.09;5034086;28;20127;-76
2022/04/02 08:59:04;;;;;;;3.72;0.93;;;;;;;15.60;53.16;98981.28;5034100;28;20076;-76
2022/04/02 09:05:06;;;;;;;5.97;3.10;;;;;;;15.84;52.28;98984.63;5034326;28;20107;-75
2022/04/02 09:11:12;;;;;;;2.67;0.98;;;;;;;15.99;51.90;98972.50;5034517;28;20052;-78
2022/04/02 09:17:27;;;;;;;2.88;0.85;;;;;;;16.32;52.45;98967.47;5034933;28;20058;-78
2022/04/02 09:20:07;;;;;;;2.53;0.73;;;;;;;16.41;51.53;98971.44;5034028;28;20065;-77
2022/04/02 09:23:07;;;;;;;2.92;0.75;;;;;;;16.67;49.58;98973.72;5033520;28;20473;-76
2022/04/02 09:25:38;;;;;;;3.58;1.42;;;;;;;17.71;56.79;98970.28;5033992;28;20041;-77
2022/04/02 09:28:54;;;;;;;8.70;3.85;;;;;;;19.38;46.43;98989.38;5033655;28;20042;-76
2022/04/02 09:35:12;;;;;;;4.35;1.55;;;;;;;18.31;49.52;99004.31;5034307;28;20075;-76
2022/04/02 09:38:10;;;;;;;5.03;1.88;;;;;;;18.64;50.68;98994.56;5033828;28;20036;-75
2022/04/02 09:44:29;;;;;;;4.65;1.17;;;;;;;16.76;47.59;98993.59;5034086;28;20067;-75
2022/04/02 09:47:10;;;;;;;3.20;0.90;;;;;;;16.86;47.94;99004.66;5035575;28;20141;-86
2022/04/02 09:49:55;;;;;;;17.50;1.17;;;;;;;16.59;48.48;98998.84;5047165;28;20052;-86
2022/04/02 09:52:23;;;;;;;11.25;0.93;;;;;;;16.53;48.37;98984.13;5057718;28;20029;-85
2022/04/02 09:55:03;;;;;;;3.38;1.08;;;;;;;16.68;49.08;98995.78;5059526;28;20051;-87
2022/04/02 10:03:57;;;;;;;3.47;0.75;;;;;;;16.64;48.94;99003.00;5240992;22;20108;-85
2022/04/02 10:06:34;;;;;;;7.93;1.05;;;;;;;16.68;49.52;99001.06;4953240;28;20527;-80
2022/04/02 10:09:13;;;;;;;4.22;1.25;;;;;;;16.58;49.72;99019.19;4973826;28;20030;-88
2022/04/02 10:11:43;;;;;;;4.35;1.17;;;;;;;16.37;49.95;99012.25;4957149;28;20852;-85
2022/04/02 10:14:09;;;;;;;3.30;1.70;;;;;;;16.73;50.60;98999.06;4973046;28;20480;-83
2022/04/02 10:16:35;;;;;;;2.78;1.02;;;;;;;16.91;49.59;99013.25;4975215;28;20070;-86
2022/04/02 10:19:06;;;;;;;2.38;1.05;;;;;;;16.76;50.08;99006.00;4975214;28;20050;-87
2022/04/02 10:21:42;;;;;;;2.33;1.20;;;;;;;16.96;49.75;98992.69;4975466;28;20066;-86
2022/04/02 10:24:24;;;;;;;6.88;0.98;;;;;;;16.97;49.44;98998.81;4972213;28;20057;-82
2022/04/02 10:26:55;;;;;;;4.65;1.42;;;;;;;17.15;48.65;98987.31;4975840;28;20096;-78
2022/04/02 10:29:42;;;;;;;1.25;0.73;;;;;;;17.63;49.07;98983.13;4971715;28;20155;-80
2022/04/02 10:32:19;;;;;;;4.13;1.55;;;;;;;18.00;48.04;98998.91;4957841;28;20039;-81
2022/04/02 10:35:02;;;;;;;10.45;2.60;;;;;;;18.43;46.18;99010.75;4974933;28;20046;-81
2022/04/02 10:40:00;;;;;;;3.35;0.80;;;;;;;17.59;46.14;99008.09;4744395;27;8399356;-79
2022/04/02 10:42:36;;;;;;;5.40;0.93;;;;;;;18.09;46.18;99003.75;4974778;28;20785;-81
2022/04/02 10:45:07;;;;;;;2.03;0.80;;;;;;;17.87;45.65;98990.75;4966763;28;20121;-81
2022/04/02 10:47:43;;;;;;;2.15;1.25;;;;;;;18.43;46.27;99007.25;4969149;28;20084;-80
2022/04/02 10:50:10;;;;;;;6.57;1.25;;;;;;;18.22;45.96;99015.41;4970381;28;20054;-81
2022/04/02 10:52:37;;;;;;;2.65;1.08;;;;;;;17.86;46.27;99007.59;4967307;28;20050;-78
2022/04/02 10:55:04;;;;;;;1.40;0.65;;;;;;;17.81;46.62;98996.38;4970632;28;20051;-80
2022/04/02 10:57:35;;;;;;;3.22;1.38;;;;;;;18.56;46.19;99013.56;4969077;28;20058;-78
2022/04/02 11:00:07;;;;;;;2.72;1.20;;;;;;;18.24;45.98;99012.66;4968328;28;20217;-81
2022/04/02 11:02:44;;;;;;;5.43;1.67;;;;;;;18.00;46.73;99005.06;4970222;28;20768;-84
2022/04/02 11:05:13;;;;;;;5.32;2.17;;;;;;;17.84;47.55;99013.00;4968357;28;20125;-81
2022/04/02 11:07:46;;;;;;;2.47;0.85;;;;;;;17.77;47.04;99018.66;4968730;28;20054;-80
2022/04/02 11:10:21;;;;;;;;;;;;;;;17.88;48.09;99019.00;4969392;28;20039;-80
2022/04/02 11:12:49;;;;;;;3.08;1.30;;;;;;;17.83;47.87;99013.94;4966251;28;19922;-78
2022/04/02 11:15:19;;;;;;;4.15;1.00;;;;;;;18.64;50.08;99018.47;4968095;28;20030;-80
2022/04/02 11:17:59;;;;;;;3.85;0.88;;;;;;;18.60;46.53;99024.91;4970937;28;20038;-79
2022/04/02 11:20:29;;;;;;;1.75;0.70;;;;;;;18.54;46.01;99012.78;4968848;28;20069;-81
2022/04/02 11:22:57;;;;;;;3.65;1.50;;;;;;;18.90;46.72;99014.38;4968206;28;20483;-79
2022/04/02 11:25:34;;;;;;;3.10;1.23;;;;;;;18.53;47.60;99017.25;4970575;28;20043;-80
2022/04/02 11:28:03;;;;;;;4.35;1.20;;;;;;;18.25;46.35;99017.91;4970685;28;20042;-80
2022/04/02 11:30:32;;;;;;;2.97;0.82;;;;;;;18.03;46.55;99004.09;4970117;28;20054;-75
2022/04/02 11:33:06;;;;;;;3.20;1.33;;;;;;;17.71;46.84;99010.09;4968027;28;20617;-77
2022/04/02 11:35:56;;;;;;;2.53;0.85;;;;;;;17.84;47.25;99015.66;4965428;28;20070;-77
2022/04/02 11:38:25;;;;;;;1.92;0.73;;;;;;;17.99;46.04;99019.31;4966496;28;20078;-76
2022/04/02 11:41:20;;;;;;;2.58;1.13;;;;;;;17.80;46.08;99019.38;4987361;28;20054;-78
2022/04/02 11:43:47;;;;;;;4.63;1.55;;;;;;;17.75;45.64;99009.91;4985642;28;20054;-77
2022/04/02 11:46:15;;;;;;;3.67;1.52;;;;;;;17.75;44.80;99008.16;4986961;28;20062;-78
2022/04/02 11:48:58;;;;;;;4.32;0.98;;;;;;;17.76;45.29;99004.53;4986032;28;20046;-80
2022/04/02 11:51:33;;;;;;;14.57;1.45;;;;;;;18.22;44.69;99002.16;4973729;28;20036;-80
2022/04/02 11:54:03;;;;;;;13.02;3.08;;;;;;;18.59;45.18;99007.22;4975257;28;20045;-80
2022/04/02 11:56:32;;;;;;;4.75;1.83;;;;;;;18.52;44.12;99002.28;4974504;28;20050;-81
2022/04/02 11:59:00;;;;;;;1.50;0.68;;;;;;;18.62;44.17;99005.25;4972154;28;20047;-80
2022/04/02 12:01:39;;;;;;;1.48;0.60;;;;;;;18.67;44.01;99013.84;4976504;28;20101;-81
2022/04/02 12:04:13;;;;;;;2.53;0.80;;;;;;;18.43;44.66;99008.09;4974113;28;20604;-81
2022/04/02 12:06:40;;;;;;;3.90;1.15;;;;;;;18.25;46.00;98991.34;4975377;28;20374;-81
2022/04/02 12:09:22;;;;;;;3.10;1.70;;;;;;;18.09;44.49;99011.69;4973727;28;20039;-80
2022/04/02 12:12:03;;;;;;;2.25;1.27;;;;;;;17.80;44.26;99000.81;4971629;28;20057;-77
2022/04/02 12:15:00;;;;;;;8.85;1.92;;;;;;;17.96;45.24;98995.59;4751232;27;9342865;-81
2022/04/02 12:17:34;;;;;;;2.78;1.45;;;;;;;17.94;45.31;98986.84;5033031;28;20053;-77
2022/04/02 12:20:00;;;;;;;5.90;1.55;;;;;;;18.20;45.34;98998.72;5025702;28;20044;-75
2022/04/02 12:22:27;;;;;;;4.78;1.40;;;;;;;17.93;45.67;99009.00;5017745;28;20047;-77
2022/04/02 12:25:04;;;;;;;4.38;1.40;;;;;;;18.25;46.20;99004.63;5025189;28;20128;-78
2022/04/02 12:27:34;;;;;;;12.07;1.55;;;;;;;18.35;43.30;98989.03;5024054;28;20060;-78
2022/04/02 12:30:03;;;;;;;6.97;1.23;;;;;;;18.40;43.55;98996.75;5028456;28;20144;-80
2022/04/02 12:32:44;;;;;;;2.65;1.48;;;;;;;18.36;42.51;98993.44;5026874;28;20239;-79
2022/04/02 12:35:09;;;;;;;3.38;1.08;;;;;;;18.10;42.58;99013.44;5023757;28;20034;-75
2022/04/02 12:37:51;;;;;;;2.72;1.33;;;;;;;18.12;43.90;99015.06;5025202;28;20080;-75
2022/04/02 12:40:22;;;;;;;6.03;1.33;;;;;;;17.98;43.62;99019.38;5026078;28;20057;-77
2022/04/02 12:43:11;;;;;;;6.78;0.88;;;;;;;17.98;43.11;99019.38;5027795;28;20056;-77
2022/04/02 12:45:38;;;;;;;2.80;0.90;;;;;;;17.87;44.80;98998.72;5028613;28;20057;-76
2022/04/02 12:48:17;;;;;;;3.25;1.00;;;;;;;17.97;44.05;99010.56;5031066;28;20124;-77
2022/04/02 12:50:52;;;;;;;4.68;0.77;;;;;;;17.85;44.01;99005.91;5009596;28;20693;-75
2022/04/02 12:54:01;;;;;;;4.53;1.17;;;;;;;17.42;48.01;99011.59;5024536;28;20041;-77
2022/04/02 12:56:33;;;;;;;3.17;0.90;;;;;;;17.33;50.12;99006.75;4934018;28;20426;-75
2022/04/02 12:59:01;;;;;;;8.45;1.75;;;;;;;17.28;52.20;98993.72;5019898;28;20905;-77
2022/04/02 13:01:35;;;;;;;1.63;1.17;;;;;;;17.09;50.46;98993.81;5032340;28;20131;-76
2022/04/02 13:04:09;;;;;;;6.07;1.52;;;;;;;17.22;48.43;98993.19;5027810;28;20037;-76
2022/04/02 13:06:45;;;;;;;5.50;1.65;;;;;;;17.24;48.52;98992.16;5026539;28;20049;-76
2022/04/02 13:09:17;;;;;;;2.53;1.10;;;;;;;17.41;49.40;98974.53;5024196;28;20142;-77
2022/04/02 13:12:03;;;;;;;2.58;1.60;;;;;;;17.41;48.97;98977.19;5023980;28;20083;-76
2022/04/02 13:14:34;;;;;;;4.75;1.05;;;;;;;17.45;48.41;98981.41;5033310;28;20053;-77
2022/04/02 13:17:15;;;;;;;3.35;1.27;;;;;;;17.73;46.87;98986.16;5040389;28;20147;-76
2022/04/02 13:22:50;;;;;;;6.50;1.80;;;;;;;18.08;45.00;98954.25;5037923;28;20060;-74
2022/04/02 13:25:18;;;;;;;3.75;1.45;;;;;;;18.41;43.75;98972.78;5030814;28;20060;-79
2022/04/02 13:27:56;;;;;;;4.38;0.60;;;;;;;18.54;42.21;98955.22;5027712;28;20068;-76
2022/04/02 13:30:32;;;;;;;3.72;0.98;;;;;;;18.71;42.40;98967.56;5026673;28;20499;-77
2022/04/02 13:33:16;;;;;;;2.90;0.73;;;;;;;18.60;41.62;98963.78;5026128;28;20084;-76
2022/04/02 13:35:54;;;;;;;4.32;0.95;;;;;;;18.75;42.18;98949.63;5012127;28;20261;-79
2022/04/02 13:38:29;;;;;;;2.28;0.88;;;;;;;18.78;40.86;98941.53;5024227;28;20416;-80